createdAt,value
2018-04-30T00:02:17.221Z,94989.36
2018-04-30T00:04:43.102Z,94988.38
2018-04-30T00:07:10.882Z,94984.95
2018-04-30T00:09:36.786Z,94974.38
2018-04-30T00:12:05.866Z,94977.83
2018-04-30T00:14:31.786Z,94988.58
2018-04-30T00:17:00.794Z,94984.22
2018-04-30T00:19:26.681Z,95003.42
2018-04-30T00:21:55.823Z,95006.62
2018-04-30T00:24:21.701Z,95005.48
2018-04-30T00:26:49.919Z,95010.63
2018-04-30T00:29:15.838Z,95019.48
2018-04-30T00:31:45.467Z,95019.00
2018-04-30T00:34:11.383Z,95020.80
2018-04-30T00:36:37.371Z,95027.11
2018-04-30T00:39:03.312Z,95035.48
2018-04-30T00:41:29.212Z,95029.26
2018-04-30T00:43:56.176Z,95041.20
2018-04-30T00:46:22.050Z,95046.36
2018-04-30T00:48:50.791Z,95028.02
2018-04-30T00:51:16.728Z,95032.67
2018-04-30T00:53:45.461Z,95056.93
2018-04-30T00:56:11.412Z,95052.67
2018-04-30T00:58:40.147Z,95063.97
2018-04-30T01:01:06.062Z,95067.43
2018-04-30T01:03:34.837Z,95059.13
2018-04-30T01:06:00.766Z,95063.31
2018-04-30T01:08:29.575Z,95061.95
2018-04-30T01:10:55.438Z,95056.94
2018-04-30T01:13:21.338Z,95052.34
2018-04-30T01:15:47.231Z,95049.16
2018-04-30T01:18:13.152Z,95055.64
2018-04-30T01:20:42.357Z,95069.14
2018-04-30T01:23:08.282Z,95076.77
2018-04-30T01:25:37.695Z,95091.56
2018-04-30T01:28:03.639Z,95094.71
2018-04-30T01:30:32.631Z,95084.56
2018-04-30T01:32:58.532Z,95077.23
2018-04-30T01:35:26.331Z,95085.22
2018-04-30T01:37:52.267Z,95089.80
2018-04-30T01:40:21.383Z,95095.27
2018-04-30T01:42:47.322Z,95092.53
2018-04-30T01:45:16.624Z,95085.42
2018-04-30T01:47:42.512Z,95077.14
2018-04-30T01:50:08.409Z,95093.33
2018-04-30T01:52:34.343Z,95109.75
2018-04-30T01:55:00.283Z,95118.63
2018-04-30T01:57:27.160Z,95116.36
2018-04-30T01:59:53.118Z,95128.04
2018-04-30T02:02:22.247Z,95128.93
2018-04-30T02:04:48.162Z,95146.13
2018-04-30T02:07:17.660Z,95143.46
2018-04-30T02:09:43.531Z,95144.17
2018-04-30T02:12:10.817Z,95150.24
2018-04-30T02:14:36.702Z,95142.11
2018-04-30T02:17:05.404Z,95141.64
2018-04-30T02:19:31.330Z,95161.33
2018-04-30T02:22:00.488Z,95178.42
2018-04-30T02:24:26.415Z,95186.17
2018-04-30T02:26:52.299Z,95202.25
2018-04-30T02:29:18.195Z,95203.12
2018-04-30T02:31:44.073Z,95201.75
2018-04-30T02:34:13.143Z,95191.71
2018-04-30T02:36:39.066Z,95186.52
2018-04-30T02:39:07.108Z,95185.42
2018-04-30T02:41:33.014Z,95189.71
2018-04-30T02:44:02.184Z,95203.81
2018-04-30T02:46:28.120Z,95196.17
2018-04-30T02:48:57.926Z,95187.52
2018-04-30T02:51:23.859Z,95184.15
2018-04-30T02:53:50.758Z,95205.84
2018-04-30T02:56:16.674Z,95229.70
2018-04-30T02:58:45.431Z,95226.36
2018-04-30T03:01:11.350Z,95244.05
2018-04-30T03:03:37.247Z,95245.87
2018-04-30T03:06:03.150Z,95255.78
2018-04-30T03:08:29.078Z,95262.19
2018-04-30T03:10:58.809Z,95266.79
2018-04-30T03:13:24.756Z,95263.58
2018-04-30T03:15:55.008Z,95283.63
2018-04-30T03:18:21.144Z,95287.67
2018-04-30T03:20:47.060Z,95286.45
2018-04-30T03:23:12.976Z,95294.58
2018-04-30T03:25:42.390Z,95300.45
2018-04-30T03:28:08.291Z,95290.70
2018-04-30T03:30:36.563Z,95295.70
2018-04-30T03:33:02.495Z,95302.81
2018-04-30T03:35:31.762Z,95305.48
2018-04-30T03:37:57.625Z,95312.54
2018-04-30T03:40:23.534Z,95311.97
2018-04-30T03:42:49.465Z,95305.11
2018-04-30T03:45:15.427Z,95293.86
2018-04-30T03:47:43.210Z,95291.92
2018-04-30T03:50:09.117Z,95307.96
2018-04-30T03:52:37.595Z,95308.78
2018-04-30T03:55:03.481Z,95317.56
2018-04-30T03:57:32.997Z,95318.61
2018-04-30T03:59:58.915Z,95319.40
2018-04-30T04:02:38.236Z,95323.93
2018-04-30T04:05:16.565Z,95325.99
2018-04-30T04:07:42.440Z,95321.48
2018-04-30T04:10:08.357Z,95315.53
2018-04-30T04:12:34.245Z,95308.50
2018-04-30T04:15:00.163Z,95307.95
2018-04-30T04:17:26.076Z,95326.09
2018-04-30T04:19:51.940Z,95331.66
2018-04-30T04:22:17.831Z,95328.53
2018-04-30T04:24:43.748Z,95333.81
2018-04-30T04:27:09.654Z,95325.70
2018-04-30T04:29:35.583Z,95324.52
2018-04-30T04:32:01.477Z,95331.46
2018-04-30T04:34:27.348Z,95326.31
2018-04-30T04:36:53.241Z,95322.83
2018-04-30T04:39:19.113Z,95335.59
2018-04-30T04:41:45.013Z,95338.28
2018-04-30T04:44:10.940Z,95321.05
2018-04-30T04:46:36.874Z,95316.74
2018-04-30T04:49:02.796Z,95314.29
2018-04-30T04:51:28.703Z,95306.39
2018-04-30T04:53:54.600Z,95319.59
2018-04-30T04:56:20.532Z,95333.48
2018-04-30T04:58:46.408Z,95330.20
2018-04-30T05:01:13.809Z,95336.89
2018-04-30T05:03:39.693Z,95356.21
2018-04-30T05:06:09.168Z,95359.45
2018-04-30T05:08:35.048Z,95372.94
2018-04-30T05:11:02.856Z,95376.31
2018-04-30T05:13:28.733Z,95378.77
2018-04-30T05:15:58.592Z,95389.16
2018-04-30T05:18:24.474Z,95384.92
2018-04-30T05:20:52.403Z,95385.02
2018-04-30T05:23:18.272Z,95383.95
2018-04-30T05:25:47.655Z,95371.39
2018-04-30T05:28:13.518Z,95366.09
2018-04-30T05:30:39.479Z,95389.27
2018-04-30T05:33:05.361Z,95390.91
2018-04-30T05:35:31.240Z,95384.80
2018-04-30T05:37:59.613Z,95381.57
2018-04-30T05:40:25.495Z,95387.52
2018-04-30T05:42:54.781Z,95393.41
2018-04-30T05:45:20.668Z,95412.82
2018-04-30T05:47:49.803Z,95417.77
2018-04-30T05:50:15.665Z,95424.91
2018-04-30T05:52:42.700Z,95422.81
2018-04-30T05:55:08.611Z,95421.80
2018-04-30T05:57:37.301Z,95425.86
2018-04-30T06:00:03.303Z,95425.78
2018-04-30T06:02:32.371Z,95410.19
2018-04-30T06:04:58.245Z,95399.05
2018-04-30T06:07:24.143Z,95388.91
2018-04-30T06:09:50.009Z,95393.22
2018-04-30T06:12:15.964Z,95378.46
2018-04-30T06:14:45.343Z,95385.00
2018-04-30T06:17:11.262Z,95400.59
2018-04-30T06:19:38.572Z,95406.16
2018-04-30T06:22:04.470Z,95421.00
2018-04-30T06:24:33.818Z,95422.77
2018-04-30T06:26:59.778Z,95408.53
2018-04-30T06:29:28.826Z,95402.57
2018-04-30T06:31:54.718Z,95405.73
2018-04-30T06:34:23.817Z,95396.93
2018-04-30T06:36:49.717Z,95395.72
2018-04-30T06:39:18.945Z,95385.48
2018-04-30T06:41:44.865Z,95384.25
2018-04-30T06:44:10.773Z,95392.84
2018-04-30T06:46:36.731Z,95396.59
2018-04-30T06:49:02.630Z,95398.41
2018-04-30T06:51:29.884Z,95411.42
2018-04-30T06:53:55.793Z,95401.78
2018-04-30T06:56:24.994Z,95387.61
2018-04-30T06:58:50.915Z,95397.64
2018-04-30T07:01:20.210Z,95395.90
2018-04-30T07:03:46.076Z,95394.38
2018-04-30T07:06:15.067Z,95403.22
2018-04-30T07:08:40.979Z,95392.95
2018-04-30T07:11:07.963Z,95391.62
2018-04-30T07:13:33.886Z,95393.45
2018-04-30T07:16:06.675Z,95389.61
2018-04-30T07:18:32.588Z,95382.13
2018-04-30T07:20:58.513Z,95377.61
2018-04-30T07:23:24.407Z,95373.23
2018-04-30T07:25:50.298Z,95406.63
2018-04-30T07:28:16.203Z,95381.66
2018-04-30T07:30:42.097Z,95378.38
2018-04-30T07:33:09.459Z,95384.71
2018-04-30T07:35:35.263Z,95393.48
2018-04-30T07:38:04.753Z,95391.20
2018-04-30T07:40:30.638Z,95397.38
2018-04-30T07:42:58.629Z,95383.45
2018-04-30T07:45:24.583Z,95382.63
2018-04-30T07:47:53.489Z,95383.38
2018-04-30T07:50:19.380Z,95396.38
2018-04-30T07:52:48.748Z,95392.52
2018-04-30T07:55:14.634Z,95380.14
2018-04-30T07:57:40.547Z,95377.59
2018-04-30T08:00:06.467Z,95380.64
2018-04-30T08:02:32.396Z,95379.34
2018-04-30T08:05:01.411Z,95400.30
2018-04-30T08:07:27.355Z,95402.59
2018-04-30T08:09:56.582Z,95395.78
2018-04-30T08:12:22.479Z,95396.44
2018-04-30T08:14:49.550Z,95394.25
2018-04-30T08:17:15.430Z,95398.09
2018-04-30T08:19:44.434Z,95410.91
2018-04-30T08:22:10.308Z,95396.31
2018-04-30T08:24:39.474Z,95390.13
2018-04-30T08:27:05.379Z,95391.34
2018-04-30T08:29:34.387Z,95392.89
2018-04-30T08:32:00.287Z,95396.02
2018-04-30T08:34:26.166Z,95398.16
2018-04-30T08:36:52.052Z,95393.88
2018-04-30T08:39:17.943Z,95391.16
2018-04-30T08:41:46.983Z,95396.61
2018-04-30T08:44:12.884Z,95410.48
2018-04-30T08:46:40.275Z,95393.66
2018-04-30T08:49:06.159Z,95400.67
2018-04-30T08:51:35.819Z,95406.13
2018-04-30T08:54:01.703Z,95419.47
2018-04-30T08:56:29.755Z,95414.44
2018-04-30T08:58:55.678Z,95412.83
2018-04-30T09:01:25.068Z,95416.38
2018-04-30T09:03:50.964Z,95413.02
2018-04-30T09:06:19.040Z,95421.63
2018-04-30T09:08:44.948Z,95422.45
2018-04-30T09:11:11.668Z,95452.38
2018-04-30T09:13:37.602Z,95429.80
2018-04-30T09:16:03.486Z,95418.17
2018-04-30T09:18:31.123Z,95415.69
2018-04-30T09:20:57.038Z,95421.87
2018-04-30T09:23:26.232Z,95411.75
2018-04-30T09:25:52.145Z,95431.78
2018-04-30T09:28:21.368Z,95423.69
2018-04-30T09:30:47.358Z,95422.77
2018-04-30T09:33:16.268Z,95411.95
2018-04-30T09:35:42.507Z,95421.89
2018-04-30T09:38:10.228Z,95417.41
2018-04-30T09:40:36.098Z,95421.61
2018-04-30T09:43:05.313Z,95433.81
2018-04-30T09:45:31.218Z,95419.87
2018-04-30T09:47:57.073Z,95411.41
2018-04-30T09:50:22.983Z,95418.81
2018-04-30T09:52:48.868Z,95418.17
2018-04-30T09:55:15.720Z,95420.29
2018-04-30T09:57:41.645Z,95413.02
2018-04-30T10:00:10.806Z,95402.31
2018-04-30T10:02:36.700Z,95415.64
2018-04-30T10:05:05.872Z,95416.38
2018-04-30T10:07:31.739Z,95404.78
2018-04-30T10:10:01.596Z,95411.42
2018-04-30T10:12:27.518Z,95412.19
2018-04-30T10:14:54.688Z,95420.66
2018-04-30T10:17:20.643Z,95424.92
2018-04-30T10:19:50.147Z,95419.11
2018-04-30T10:22:16.068Z,95429.03
2018-04-30T10:24:41.955Z,95404.84
2018-04-30T10:27:07.859Z,95421.45
2018-04-30T10:29:33.798Z,95425.72
2018-04-30T10:32:01.544Z,95425.80
2018-04-30T10:34:27.435Z,95406.74
2018-04-30T10:36:56.486Z,95414.13
2018-04-30T10:39:22.385Z,95410.02
2018-04-30T10:41:51.513Z,95431.88
2018-04-30T10:44:17.427Z,95417.86
2018-04-30T10:46:46.386Z,95416.86
2018-04-30T10:49:12.287Z,95424.31
2018-04-30T10:51:40.111Z,95411.04
2018-04-30T10:54:06.010Z,95421.08
2018-04-30T10:56:35.379Z,95417.12
2018-04-30T10:59:01.288Z,95421.63
2018-04-30T11:01:27.218Z,95416.48
2018-04-30T11:03:53.140Z,95420.52
2018-04-30T11:06:19.016Z,95414.16
2018-04-30T11:08:46.559Z,95415.69
2018-04-30T11:11:12.405Z,95418.47
2018-04-30T11:13:41.732Z,95415.99
2018-04-30T11:16:07.640Z,95421.52
2018-04-30T11:18:36.069Z,95417.03
2018-04-30T11:21:02.013Z,95418.89
2018-04-30T11:23:31.167Z,95422.97
2018-04-30T11:25:57.084Z,95417.38
2018-04-30T11:28:26.324Z,95425.50
2018-04-30T11:30:52.236Z,95434.74
2018-04-30T11:33:21.506Z,95428.67
2018-04-30T11:35:47.419Z,95437.38
2018-04-30T11:38:13.281Z,95431.43
2018-04-30T11:40:39.210Z,95427.77
2018-04-30T11:43:05.115Z,95428.45
2018-04-30T11:45:31.988Z,95451.00
2018-04-30T11:47:57.895Z,95450.16
2018-04-30T11:50:26.537Z,95433.73
2018-04-30T11:52:52.472Z,95441.02
2018-04-30T11:55:21.737Z,95453.50
2018-04-30T11:57:47.654Z,95447.23
2018-04-30T12:00:16.248Z,95438.75
2018-04-30T12:02:42.162Z,95449.85
2018-04-30T12:05:11.067Z,95456.94
2018-04-30T12:07:36.990Z,95440.89
2018-04-30T12:10:06.049Z,95454.37
2018-04-30T12:12:31.951Z,95457.81
2018-04-30T12:14:57.892Z,95448.38
2018-04-30T12:17:23.772Z,95451.88
2018-04-30T12:19:49.710Z,95455.67
2018-04-30T12:22:17.567Z,95447.78
2018-04-30T12:24:43.497Z,95452.20
2018-04-30T12:27:12.815Z,95468.56
2018-04-30T12:29:38.881Z,95445.82
2018-04-30T12:32:08.636Z,95463.31
2018-04-30T12:34:34.517Z,95447.83
2018-04-30T12:37:01.383Z,95465.37
2018-04-30T12:39:27.292Z,95453.69
2018-04-30T12:41:57.115Z,95459.70
2018-04-30T12:44:23.008Z,95453.93
2018-04-30T12:46:52.479Z,95451.64
2018-04-30T12:49:18.375Z,95460.05
2018-04-30T12:51:44.285Z,95460.64
2018-04-30T12:54:10.210Z,95454.20
2018-04-30T12:56:36.095Z,95467.48
2018-04-30T12:59:03.005Z,95456.42
2018-04-30T13:01:28.906Z,95453.58
2018-04-30T13:03:58.007Z,95468.16
2018-04-30T13:06:23.891Z,95465.48
2018-04-30T13:08:51.907Z,95478.59
2018-04-30T13:11:17.816Z,95468.83
2018-04-30T13:13:46.706Z,95452.49
2018-04-30T13:16:12.553Z,95505.12
2018-04-30T13:18:41.864Z,95462.46
2018-04-30T13:21:07.783Z,95473.07
2018-04-30T13:23:37.156Z,95461.92
2018-04-30T13:26:03.078Z,95472.13
2018-04-30T13:28:29.012Z,95467.83
2018-04-30T13:30:54.858Z,95485.28
2018-04-30T13:33:20.768Z,95471.99
2018-04-30T13:35:47.698Z,95464.55
2018-04-30T13:38:13.598Z,95477.42
2018-04-30T13:40:43.143Z,95469.05
2018-04-30T13:43:09.066Z,95461.98
2018-04-30T13:45:38.627Z,95470.79
2018-04-30T13:48:04.536Z,95464.83
2018-04-30T13:50:31.934Z,95471.19
2018-04-30T13:52:57.858Z,95456.38
2018-04-30T13:55:26.901Z,95459.05
2018-04-30T13:57:52.793Z,95480.74
2018-04-30T14:00:21.972Z,95470.97
2018-04-30T14:02:47.843Z,95473.34
2018-04-30T14:05:13.744Z,95473.68
2018-04-30T14:07:39.593Z,95471.72
2018-04-30T14:10:05.512Z,95471.30
2018-04-30T14:12:32.935Z,95506.48
2018-04-30T14:14:58.828Z,95474.56
2018-04-30T14:17:27.997Z,95472.66
2018-04-30T14:19:53.925Z,95480.83
2018-04-30T14:22:22.817Z,95472.61
2018-04-30T14:24:48.679Z,95478.52
2018-04-30T14:27:18.220Z,95493.68
2018-04-30T14:29:44.083Z,95483.45
2018-04-30T14:32:12.004Z,95482.97
2018-04-30T14:34:37.931Z,95485.22
2018-04-30T14:37:07.064Z,95445.16
2018-04-30T14:39:32.932Z,95493.48
2018-04-30T14:41:58.873Z,95493.92
2018-04-30T14:44:24.770Z,95471.29
2018-04-30T14:46:50.660Z,95471.39
2018-04-30T14:49:19.744Z,95476.70
2018-04-30T14:51:45.639Z,95482.43
2018-04-30T14:54:12.727Z,95475.20
2018-04-30T14:56:38.624Z,95472.63
2018-04-30T14:59:07.788Z,95514.09
2018-04-30T15:01:33.698Z,95488.05
2018-04-30T15:04:03.599Z,95473.61
2018-04-30T15:06:29.515Z,95466.64
2018-04-30T15:08:58.740Z,95459.37
2018-04-30T15:11:24.650Z,95467.19
2018-04-30T15:13:52.435Z,95485.63
2018-04-30T15:16:18.343Z,95455.80
2018-04-30T15:18:44.283Z,95461.86
2018-04-30T15:21:10.175Z,95470.31
2018-04-30T15:23:36.058Z,95463.97
2018-04-30T15:26:05.167Z,95471.08
2018-04-30T15:28:31.062Z,95470.98
2018-04-30T15:30:58.246Z,95442.22
2018-04-30T15:33:24.150Z,95462.00
2018-04-30T15:35:53.124Z,95457.05
2018-04-30T15:38:19.021Z,95465.87
2018-04-30T15:40:48.820Z,95454.25
2018-04-30T15:43:14.695Z,95451.95
2018-04-30T15:45:44.176Z,95447.75
2018-04-30T15:48:10.116Z,95459.96
2018-04-30T15:50:37.147Z,95464.93
2018-04-30T15:53:03.063Z,95461.56
2018-04-30T15:55:28.951Z,95452.88
2018-04-30T15:57:54.876Z,95455.00
2018-04-30T16:00:20.768Z,95457.95
2018-04-30T16:02:50.299Z,95456.41
2018-04-30T16:05:16.219Z,95467.55
2018-04-30T16:07:43.723Z,95466.52
2018-04-30T16:10:09.631Z,95471.88
2018-04-30T16:12:38.959Z,95464.20
2018-04-30T16:15:04.847Z,95476.44
2018-04-30T16:17:33.135Z,95485.58
2018-04-30T16:19:59.050Z,95488.33
2018-04-30T16:22:28.323Z,95496.17
2018-04-30T16:24:54.247Z,95491.75
2018-04-30T16:27:23.625Z,95488.56
2018-04-30T16:29:49.510Z,95477.41
2018-04-30T16:32:15.449Z,95492.14
2018-04-30T16:34:41.309Z,95496.36
2018-04-30T16:37:07.223Z,95493.38
2018-04-30T16:39:34.695Z,95492.97
2018-04-30T16:42:00.540Z,95514.94
2018-04-30T16:44:29.754Z,95506.56
2018-04-30T16:46:55.633Z,95502.08
2018-04-30T16:49:25.000Z,95505.17
2018-04-30T16:51:50.869Z,95506.19
2018-04-30T16:54:18.196Z,95504.72
2018-04-30T16:56:44.100Z,95509.31
2018-04-30T16:59:13.272Z,95521.48
2018-04-30T17:01:39.167Z,95528.56
2018-04-30T17:04:08.744Z,95529.04
2018-04-30T17:06:34.660Z,95531.27
2018-04-30T17:09:00.536Z,95529.53
2018-04-30T17:11:26.455Z,95532.74
2018-04-30T17:13:52.315Z,95530.05
2018-04-30T17:16:20.151Z,95525.00
2018-04-30T17:18:46.115Z,95524.53
2018-04-30T17:21:15.075Z,95522.72
2018-04-30T17:23:40.966Z,95533.89
2018-04-30T17:26:09.002Z,95534.37
2018-04-30T17:28:34.918Z,95539.73
2018-04-30T17:31:04.275Z,95553.73
2018-04-30T17:33:30.174Z,95562.30
2018-04-30T17:35:59.127Z,95558.25
2018-04-30T17:38:25.022Z,95561.62
2018-04-30T17:40:53.965Z,95575.16
2018-04-30T17:43:19.847Z,95573.37
2018-04-30T17:45:45.763Z,95576.30
2018-04-30T17:48:11.676Z,95573.99
2018-04-30T17:50:37.544Z,95581.29
2018-04-30T17:53:06.593Z,95585.08
2018-04-30T17:55:32.441Z,95578.72
2018-04-30T17:57:59.403Z,95578.13
2018-04-30T18:00:25.315Z,95579.98
2018-04-30T18:02:54.478Z,95592.14
2018-04-30T18:05:20.393Z,95602.56
2018-04-30T18:07:49.490Z,95606.63
2018-04-30T18:10:15.391Z,95608.38
2018-04-30T18:12:44.549Z,95609.69
2018-04-30T18:15:10.363Z,95607.30
2018-04-30T18:17:39.500Z,95606.35
2018-04-30T18:20:05.393Z,95612.91
2018-04-30T18:22:31.286Z,95607.73
2018-04-30T18:24:57.177Z,95614.55
2018-04-30T18:27:23.088Z,95614.00
2018-04-30T18:29:50.216Z,95620.38
2018-04-30T18:32:16.079Z,95637.15
2018-04-30T18:34:45.406Z,95642.09
2018-04-30T18:37:11.362Z,95649.47
2018-04-30T18:39:40.760Z,95650.66
2018-04-30T18:42:06.652Z,95652.44
2018-04-30T18:44:35.949Z,95659.86
2018-04-30T18:47:01.866Z,95665.93
2018-04-30T18:49:30.876Z,95667.66
2018-04-30T18:51:56.763Z,95670.31
2018-04-30T18:54:23.787Z,95672.98
2018-04-30T18:56:49.695Z,95682.09
2018-04-30T18:59:15.627Z,95679.37
2018-04-30T19:01:41.544Z,95679.04
2018-04-30T19:04:07.652Z,95682.51
2018-04-30T19:06:35.777Z,95681.67
2018-04-30T19:09:01.739Z,95695.73
2018-04-30T19:11:30.868Z,95704.69
2018-04-30T19:13:56.776Z,95708.23
2018-04-30T19:16:24.751Z,95723.66
2018-04-30T19:18:50.672Z,95728.22
2018-04-30T19:21:20.008Z,95732.98
2018-04-30T19:23:45.910Z,95737.66
2018-04-30T19:26:14.553Z,95736.02
2018-04-30T19:28:40.540Z,95737.90
2018-04-30T19:31:09.927Z,95748.28
2018-04-30T19:33:35.888Z,95750.77
2018-04-30T19:36:01.792Z,95761.30
2018-04-30T19:38:27.717Z,95761.64
2018-04-30T19:40:53.628Z,95752.70
2018-04-30T19:43:20.845Z,95750.98
2018-04-30T19:45:46.724Z,95752.41
2018-04-30T19:48:16.140Z,95759.47
2018-04-30T19:50:42.048Z,95762.31
2018-04-30T19:53:10.173Z,95754.33
2018-04-30T19:55:36.121Z,95761.91
2018-04-30T19:58:05.566Z,95755.22
2018-04-30T20:00:31.460Z,95758.64
2018-04-30T20:03:00.712Z,95759.59
2018-04-30T20:05:26.592Z,95750.16
2018-04-30T20:07:54.298Z,95750.42
2018-04-30T20:10:20.149Z,95757.52
2018-04-30T20:12:46.099Z,95755.42
2018-04-30T20:15:11.993Z,95752.09
2018-04-30T20:17:37.879Z,95745.71
2018-04-30T20:20:07.090Z,95753.28
2018-04-30T20:22:33.050Z,95748.41
2018-04-30T20:25:02.546Z,95757.63
2018-04-30T20:27:28.502Z,95755.11
2018-04-30T20:29:55.473Z,95765.45
2018-04-30T20:32:21.354Z,95757.56
2018-04-30T20:34:50.242Z,95766.13
2018-04-30T20:37:16.208Z,95758.64
2018-04-30T20:39:46.918Z,95762.63
2018-04-30T20:42:12.917Z,95761.97
2018-04-30T20:44:39.567Z,95759.06
2018-04-30T20:47:05.464Z,95767.85
2018-04-30T20:49:31.365Z,95773.60
2018-04-30T20:51:57.502Z,95773.38
2018-04-30T20:54:23.503Z,95772.19
2018-04-30T20:56:51.206Z,95778.07
2018-04-30T20:59:17.140Z,95781.94
2018-04-30T21:01:45.627Z,95778.07
2018-04-30T21:04:11.520Z,95777.68
2018-04-30T21:06:40.474Z,95778.84
2018-04-30T21:09:13.332Z,95779.98
2018-04-30T21:11:39.301Z,95789.02
2018-04-30T21:14:05.962Z,95791.89
2018-04-30T21:16:32.107Z,95789.44
2018-04-30T21:18:58.063Z,95793.31
2018-04-30T21:21:25.548Z,95796.69
2018-04-30T21:23:51.472Z,95785.98
2018-04-30T21:26:17.447Z,95776.92
2018-04-30T21:28:43.392Z,95790.94
2018-04-30T21:31:09.286Z,95798.38
2018-04-30T21:33:38.235Z,95793.73
2018-04-30T21:36:04.167Z,95790.02
2018-04-30T21:38:31.517Z,95787.41
2018-04-30T21:40:57.426Z,95780.76
2018-04-30T21:43:27.006Z,95771.55
2018-04-30T21:45:52.910Z,95776.11
2018-04-30T21:48:22.226Z,95782.72
2018-04-30T21:50:48.110Z,95777.66
2018-04-30T21:53:17.371Z,95779.61
2018-04-30T21:55:43.286Z,95779.69
2018-04-30T21:58:10.336Z,95779.95
2018-04-30T22:00:36.477Z,95776.38
2018-04-30T22:03:02.499Z,95770.35
2018-04-30T22:05:28.401Z,95773.42
2018-04-30T22:07:54.286Z,95766.83
2018-04-30T22:10:23.417Z,95778.19
2018-04-30T22:12:49.332Z,95783.51
2018-04-30T22:15:16.582Z,95789.19
2018-04-30T22:17:42.531Z,95796.95
2018-04-30T22:20:11.316Z,95808.18
2018-04-30T22:22:37.211Z,95815.35
2018-04-30T22:25:05.912Z,95813.27
2018-04-30T22:27:39.138Z,95813.59
2018-04-30T22:30:05.928Z,95815.75
2018-04-30T22:32:31.794Z,95808.46
2018-04-30T22:34:57.712Z,95814.70
2018-04-30T22:37:23.626Z,95826.00
2018-04-30T22:39:49.576Z,95824.03
2018-04-30T22:42:15.449Z,95825.23
2018-04-30T22:44:41.375Z,95827.06
2018-04-30T22:47:07.302Z,95831.77
2018-04-30T22:49:33.240Z,95824.83
2018-04-30T22:52:02.921Z,95832.12
2018-04-30T22:54:28.783Z,95833.08
2018-04-30T22:56:58.099Z,95828.97
2018-04-30T22:59:23.996Z,95837.09
2018-04-30T23:01:53.165Z,95831.46
2018-04-30T23:04:19.076Z,95832.36
2018-04-30T23:06:46.038Z,95833.19
2018-04-30T23:09:11.915Z,95833.33
2018-04-30T23:11:40.908Z,95839.36
2018-04-30T23:14:06.856Z,95840.86
2018-04-30T23:16:32.747Z,95831.08
2018-04-30T23:18:58.662Z,95834.74
2018-04-30T23:21:24.592Z,95836.30
2018-04-30T23:23:54.123Z,95841.34
2018-04-30T23:26:20.021Z,95834.20
2018-04-30T23:28:47.529Z,95837.63
2018-04-30T23:31:13.564Z,95822.34
2018-04-30T23:33:42.679Z,95830.34
2018-04-30T23:36:08.619Z,95840.02
2018-04-30T23:38:37.713Z,95845.92
2018-04-30T23:41:03.639Z,95843.31
2018-04-30T23:43:32.932Z,95837.89
2018-04-30T23:45:58.815Z,95839.34
2018-04-30T23:48:26.090Z,95843.98
2018-04-30T23:50:52.040Z,95839.66
2018-04-30T23:53:17.945Z,95838.88
2018-04-30T23:55:43.866Z,95836.88
2018-04-30T23:58:09.816Z,95842.13
